createdAt,value
2023-02-07T00:02:08.486Z,11.70
2023-02-07T00:05:01.010Z,12.00
2023-02-07T00:07:52.475Z,11.80
2023-02-07T00:10:44.029Z,13.30
2023-02-07T00:13:35.636Z,10.00
2023-02-07T00:16:27.884Z,12.50
2023-02-07T00:19:19.112Z,11.50
2023-02-07T00:22:10.659Z,11.30
2023-02-07T00:25:02.347Z,12.70
2023-02-07T00:27:54.000Z,13.00
2023-02-07T00:30:45.918Z,13.00
2023-02-07T00:33:38.644Z,14.80
2023-02-07T00:36:31.414Z,12.30
2023-02-07T00:39:22.364Z,15.50
2023-02-07T00:42:13.911Z,14.50
2023-02-07T00:45:06.086Z,12.60
2023-02-07T00:47:57.473Z,14.90
2023-02-07T00:50:49.052Z,13.50
2023-02-07T00:53:40.874Z,12.60
2023-02-07T00:56:32.664Z,15.60
2023-02-07T00:59:24.262Z,14.00
2023-02-07T01:02:15.946Z,12.00
2023-02-07T01:05:08.887Z,13.40
2023-02-07T01:07:59.880Z,13.30
2023-02-07T01:10:51.459Z,13.00
2023-02-07T01:13:44.175Z,12.70
2023-02-07T01:16:36.066Z,13.80
2023-02-07T01:19:27.057Z,11.70
2023-02-07T01:22:19.738Z,10.80
2023-02-07T01:25:11.781Z,12.70
2023-02-07T01:28:03.251Z,12.50
2023-02-07T01:30:55.020Z,12.90
2023-02-07T01:33:46.804Z,13.50
2023-02-07T01:36:38.337Z,13.10
2023-02-07T01:39:30.155Z,13.60
2023-02-07T01:42:21.747Z,12.00
2023-02-07T01:45:26.881Z,12.50
2023-02-07T01:48:21.009Z,13.30
2023-02-07T01:51:12.596Z,11.90
2023-02-07T01:54:07.957Z,13.10
2023-02-07T01:57:00.226Z,13.20
2023-02-07T01:59:52.705Z,11.40
2023-02-07T02:02:44.357Z,13.30
2023-02-07T02:05:37.026Z,15.30
2023-02-07T02:08:28.708Z,12.70
2023-02-07T02:11:28.222Z,13.50
2023-02-07T02:14:24.470Z,18.60
2023-02-07T02:20:26.407Z,15.70
2023-02-07T02:23:24.253Z,15.40
2023-02-07T02:26:37.597Z,13.90
2023-02-07T02:30:00.537Z,15.10
2023-02-07T02:33:03.083Z,14.30
2023-02-07T02:35:58.521Z,15.90
2023-02-07T02:38:52.177Z,17.50
2023-02-07T02:41:46.893Z,15.90
2023-02-07T02:44:42.080Z,22.00
2023-02-07T02:47:33.685Z,39.00
2023-02-07T02:50:26.397Z,39.90
2023-02-07T02:53:17.456Z,24.50
2023-02-07T02:56:30.170Z,22.20
2023-02-07T02:59:32.745Z,41.90
2023-02-07T03:02:28.584Z,25.00
2023-02-07T03:05:26.687Z,20.10
2023-02-07T03:08:24.312Z,29.90
2023-02-07T03:11:17.106Z,23.20
2023-02-07T03:14:10.679Z,18.70
2023-02-07T03:17:06.327Z,22.20
2023-02-07T03:19:59.329Z,19.20
2023-02-07T03:22:50.552Z,27.40
2023-02-07T03:25:42.162Z,25.70
2023-02-07T03:28:33.816Z,24.10
2023-02-07T03:31:26.261Z,20.30
2023-02-07T03:34:18.866Z,28.20
2023-02-07T03:37:11.588Z,21.30
2023-02-07T03:40:02.519Z,26.80
2023-02-07T03:42:55.118Z,21.60
2023-02-07T03:45:47.587Z,62.10
2023-02-07T03:48:39.221Z,26.50
2023-02-07T03:51:30.932Z,26.00
2023-02-07T03:54:22.481Z,29.60
2023-02-07T03:57:14.139Z,77.70
2023-02-07T04:00:07.260Z,54.60
2023-02-07T04:02:58.179Z,27.30
2023-02-07T04:05:50.130Z,64.90
2023-02-07T04:08:41.852Z,24.80
2023-02-07T04:11:32.776Z,80.50
2023-02-07T04:14:24.395Z,88.00
2023-02-07T04:17:16.046Z,96.20
2023-02-07T04:20:09.258Z,98.20
2023-02-07T04:23:00.209Z,96.90
2023-02-07T04:25:51.827Z,92.40
2023-02-07T04:28:43.386Z,107.10
2023-02-07T04:31:34.926Z,121.80
2023-02-07T04:34:27.278Z,104.50
2023-02-07T04:37:18.645Z,109.10
2023-02-07T04:40:12.069Z,114.10
2023-02-07T04:43:03.097Z,123.30
2023-02-07T04:45:54.845Z,116.20
2023-02-07T04:48:48.398Z,96.30
2023-02-07T04:51:40.048Z,96.40
2023-02-07T04:54:31.648Z,115.40
2023-02-07T04:57:23.254Z,100.50
2023-02-07T05:00:17.794Z,94.90
2023-02-07T05:03:08.782Z,120.50
2023-02-07T05:06:00.524Z,87.40
2023-02-07T05:08:52.273Z,119.70
2023-02-07T05:11:43.862Z,124.60
2023-02-07T05:14:35.578Z,121.40
2023-02-07T05:17:27.145Z,132.70
2023-02-07T05:20:17.825Z,123.20
2023-02-07T05:23:08.865Z,107.00
2023-02-07T05:26:00.452Z,121.40
2023-02-07T05:28:52.069Z,133.20
2023-02-07T05:32:01.410Z,124.00
2023-02-07T05:34:53.092Z,125.60
2023-02-07T05:37:44.791Z,125.50
2023-02-07T05:40:36.371Z,105.70
2023-02-07T05:43:28.065Z,79.60
2023-02-07T05:46:19.928Z,120.40
2023-02-07T05:49:11.671Z,121.30
2023-02-07T05:52:03.445Z,67.00
2023-02-07T05:54:55.044Z,120.80
2023-02-07T05:57:46.822Z,108.80
2023-02-07T06:00:38.676Z,70.90
2023-02-07T06:03:30.256Z,113.70
2023-02-07T06:06:22.019Z,79.90
2023-02-07T06:09:13.733Z,136.30
2023-02-07T06:12:05.608Z,140.60
2023-02-07T06:14:57.476Z,63.80
2023-02-07T06:17:49.395Z,139.40
2023-02-07T06:20:41.282Z,124.50
2023-02-07T06:23:33.010Z,152.60
2023-02-07T06:26:24.746Z,158.70
2023-02-07T06:29:16.597Z,169.60
2023-02-07T06:32:08.641Z,171.40
2023-02-07T06:35:00.524Z,183.90
2023-02-07T06:37:54.924Z,180.90
2023-02-07T06:40:46.827Z,181.60
2023-02-07T06:43:38.623Z,196.00
2023-02-07T06:46:30.481Z,152.80
2023-02-07T06:49:22.211Z,168.50
2023-02-07T06:52:13.896Z,188.80
2023-02-07T06:55:05.963Z,142.00
2023-02-07T06:57:57.555Z,176.80
2023-02-07T07:00:49.515Z,178.40
2023-02-07T07:03:41.221Z,145.10
2023-02-07T07:06:32.810Z,177.40
2023-02-07T07:09:24.458Z,160.90
2023-02-07T07:12:16.522Z,152.10
2023-02-07T07:15:10.398Z,187.70
2023-02-07T07:18:01.470Z,195.70
2023-02-07T07:20:56.371Z,139.10
2023-02-07T07:23:47.971Z,157.50
2023-02-07T07:26:48.952Z,158.30
2023-02-07T07:29:41.587Z,147.80
2023-02-07T07:32:34.497Z,163.60
2023-02-07T07:35:26.543Z,153.30
2023-02-07T07:38:18.416Z,107.60
2023-02-07T07:41:10.285Z,44.20
2023-02-07T07:44:01.903Z,38.20
2023-02-07T07:46:53.704Z,23.00
2023-02-07T07:49:45.333Z,18.30
2023-02-07T07:52:36.929Z,15.70
2023-02-07T07:55:28.646Z,15.60
2023-02-07T07:58:20.410Z,18.80
2023-02-07T08:01:12.071Z,16.00
2023-02-07T08:04:04.183Z,13.10
2023-02-07T08:06:55.544Z,15.00
2023-02-07T08:09:46.706Z,13.10
2023-02-07T08:12:37.794Z,14.30
2023-02-07T08:15:28.862Z,12.00
2023-02-07T08:18:19.874Z,11.80
2023-02-07T08:21:11.187Z,11.80
2023-02-07T08:24:03.045Z,15.60
2023-02-07T08:26:54.910Z,12.70
2023-02-07T08:29:46.984Z,14.80
2023-02-07T08:32:39.679Z,14.40
2023-02-07T08:35:32.473Z,16.00
2023-02-07T08:38:24.141Z,16.70
2023-02-07T08:41:15.874Z,16.70
2023-02-07T08:44:07.888Z,17.20
2023-02-07T08:46:59.528Z,17.80
2023-02-07T08:49:51.265Z,20.80
2023-02-07T08:52:42.994Z,18.60
2023-02-07T08:55:34.674Z,19.80
2023-02-07T08:58:26.430Z,16.30
2023-02-07T09:01:17.995Z,17.10
2023-02-07T09:04:11.612Z,15.80
2023-02-07T09:07:02.722Z,20.50
2023-02-07T09:09:54.298Z,18.40
2023-02-07T09:12:45.921Z,16.70
2023-02-07T09:15:37.631Z,14.20
2023-02-07T09:18:30.544Z,16.40
2023-02-07T09:21:22.512Z,13.00
2023-02-07T09:24:13.539Z,14.20
2023-02-07T09:27:05.412Z,13.00
2023-02-07T09:29:57.045Z,13.80
2023-02-07T09:32:48.697Z,14.80
2023-02-07T09:35:41.029Z,17.20
2023-02-07T09:38:32.862Z,13.10
2023-02-07T09:41:30.675Z,15.90
2023-02-07T09:44:26.142Z,18.80
2023-02-07T09:47:18.942Z,14.50
2023-02-07T09:50:13.480Z,14.40
2023-02-07T09:53:07.276Z,16.50
2023-02-07T09:55:59.842Z,15.80
2023-02-07T09:58:54.904Z,17.20
2023-02-07T10:01:47.702Z,15.80
2023-02-07T10:04:39.770Z,17.80
2023-02-07T10:07:31.090Z,18.20
2023-02-07T10:10:26.406Z,15.30
2023-02-07T10:13:26.162Z,19.60
2023-02-07T10:16:42.552Z,15.70
2023-02-07T10:19:40.094Z,16.00
2023-02-07T10:22:35.203Z,16.80
2023-02-07T10:25:33.797Z,13.40
2023-02-07T10:28:42.652Z,15.20
2023-02-07T10:31:37.565Z,16.50
2023-02-07T10:34:35.297Z,14.10
2023-02-07T10:37:30.283Z,14.90
2023-02-07T10:40:25.923Z,15.90
2023-02-07T10:43:27.384Z,17.10
2023-02-07T10:46:21.698Z,14.20
2023-02-07T10:49:24.630Z,18.60
2023-02-07T10:52:33.949Z,16.70
2023-02-07T10:55:40.520Z,13.60
2023-02-07T10:58:41.712Z,15.70
2023-02-07T11:01:35.427Z,17.50
2023-02-07T11:04:37.100Z,17.60
2023-02-07T11:07:39.454Z,15.70
2023-02-07T11:10:39.574Z,13.90
2023-02-07T11:16:26.502Z,15.70
2023-02-07T11:19:24.463Z,14.70
2023-02-07T11:22:23.376Z,15.50
2023-02-07T11:25:16.016Z,14.30
2023-02-07T11:28:14.348Z,15.10
2023-02-07T11:31:11.205Z,14.70
2023-02-07T11:34:30.251Z,16.90
2023-02-07T11:37:29.479Z,16.20
2023-02-07T11:40:30.438Z,15.10
2023-02-07T11:43:24.266Z,14.90
2023-02-07T11:46:15.307Z,14.50
2023-02-07T11:49:11.335Z,17.10
2023-02-07T11:52:02.915Z,18.50
2023-02-07T11:54:57.411Z,11.30
2023-02-07T11:57:48.458Z,14.40
2023-02-07T12:00:40.977Z,13.50
2023-02-07T12:03:34.966Z,17.00
2023-02-07T12:06:29.150Z,14.50
2023-02-07T12:09:28.841Z,13.60
2023-02-07T12:12:39.284Z,13.80
2023-02-07T12:15:36.925Z,15.20
2023-02-07T12:18:30.937Z,16.30
2023-02-07T12:21:25.250Z,16.90
2023-02-07T12:24:19.134Z,15.60
2023-02-07T12:27:16.594Z,16.10
2023-02-07T12:30:15.349Z,15.00
2023-02-07T12:33:11.374Z,15.50
2023-02-07T12:36:05.137Z,15.40
2023-02-07T12:38:57.615Z,14.00
2023-02-07T12:41:49.443Z,14.20
2023-02-07T12:44:41.893Z,14.70
2023-02-07T12:47:41.527Z,17.50
2023-02-07T12:50:50.468Z,15.80
2023-02-07T12:53:49.167Z,16.20
2023-02-07T12:56:46.538Z,15.50
2023-02-07T12:59:43.577Z,17.00
2023-02-07T13:02:39.152Z,15.60
2023-02-07T13:05:46.042Z,15.40
2023-02-07T13:08:44.789Z,21.20
2023-02-07T13:11:41.024Z,16.40
2023-02-07T13:14:38.688Z,17.10
2023-02-07T13:17:37.599Z,18.00
2023-02-07T13:20:38.974Z,15.90
2023-02-07T13:23:31.856Z,17.50
2023-02-07T13:26:26.301Z,15.00
2023-02-07T13:29:17.686Z,16.50
2023-02-07T13:32:12.701Z,19.00
2023-02-07T13:35:05.874Z,18.30
2023-02-07T13:38:00.106Z,15.60
2023-02-07T13:40:57.601Z,12.60
2023-02-07T13:44:09.103Z,13.80
2023-02-07T13:47:24.240Z,20.00
2023-02-07T13:50:24.455Z,15.20
2023-02-07T13:53:26.461Z,15.00
2023-02-07T13:56:34.986Z,20.70
2023-02-07T13:59:39.593Z,14.90
2023-02-07T14:02:32.887Z,17.20
2023-02-07T14:05:26.063Z,14.90
2023-02-07T14:08:25.093Z,16.00
2023-02-07T14:11:29.011Z,16.20
2023-02-07T14:14:26.863Z,14.80
2023-02-07T14:17:38.258Z,17.80
2023-02-07T14:20:48.942Z,15.90
2023-02-07T14:24:05.761Z,14.90
2023-02-07T14:27:22.699Z,12.70
2023-02-07T14:30:22.099Z,13.00
2023-02-07T14:33:15.445Z,13.30
2023-02-07T14:36:26.824Z,14.70
2023-02-07T14:39:31.563Z,12.80
2023-02-07T14:42:22.813Z,17.90
2023-02-07T14:45:20.458Z,15.60
2023-02-07T14:48:40.942Z,16.90
2023-02-07T14:51:38.060Z,15.50
2023-02-07T14:54:30.263Z,15.50
2023-02-07T14:57:26.173Z,18.50
2023-02-07T15:00:28.888Z,15.00
2023-02-07T15:03:20.507Z,13.60
2023-02-07T15:06:30.834Z,16.50
2023-02-07T15:09:26.409Z,14.20
2023-02-07T15:12:27.101Z,14.90
2023-02-07T15:15:35.719Z,13.00
2023-02-07T15:18:28.127Z,15.40
2023-02-07T15:21:20.601Z,12.60
2023-02-07T15:24:18.624Z,16.80
2023-02-07T15:27:21.006Z,14.40
2023-02-07T15:30:20.172Z,14.80
2023-02-07T15:33:14.989Z,14.80
2023-02-07T15:36:08.187Z,12.80
2023-02-07T15:38:59.264Z,13.00
2023-02-07T15:41:51.736Z,12.10
2023-02-07T15:44:50.525Z,13.10
2023-02-07T15:47:41.715Z,12.20
2023-02-07T15:50:32.893Z,14.20
2023-02-07T15:53:27.339Z,13.50
2023-02-07T15:56:18.380Z,12.40
2023-02-07T15:59:13.389Z,17.50
2023-02-07T16:02:05.032Z,13.20
2023-02-07T16:04:56.974Z,18.20
2023-02-07T16:07:49.133Z,15.10
2023-02-07T16:10:40.947Z,11.70
2023-02-07T16:13:33.531Z,10.60
2023-02-07T16:16:26.040Z,14.20
2023-02-07T16:19:19.827Z,12.80
2023-02-07T16:22:13.136Z,13.10
2023-02-07T16:25:04.701Z,12.30
2023-02-07T16:27:55.825Z,16.30
2023-02-07T16:30:46.920Z,17.10
2023-02-07T16:33:39.903Z,15.30
2023-02-07T16:36:31.768Z,16.70
2023-02-07T16:39:23.300Z,18.10
2023-02-07T16:42:16.558Z,14.70
2023-02-07T16:45:11.289Z,16.10
2023-02-07T16:48:02.437Z,13.20
2023-02-07T16:50:53.621Z,13.70
2023-02-07T16:53:44.665Z,18.00
2023-02-07T16:56:35.756Z,14.20
2023-02-07T16:59:26.776Z,18.20
2023-02-07T17:02:18.482Z,15.30
2023-02-07T17:05:11.409Z,14.70
2023-02-07T17:08:02.533Z,18.10
2023-02-07T17:10:55.096Z,14.40
2023-02-07T17:13:46.485Z,18.30
2023-02-07T17:16:38.322Z,17.10
2023-02-07T17:19:29.596Z,19.70
2023-02-07T17:22:20.740Z,22.60
2023-02-07T17:25:12.085Z,20.80
2023-02-07T17:28:03.467Z,18.30
2023-02-07T17:30:56.600Z,15.10
2023-02-07T17:33:47.881Z,13.90
2023-02-07T17:36:39.017Z,18.40
2023-02-07T17:39:30.081Z,17.20
2023-02-07T17:42:21.149Z,14.40
2023-02-07T17:45:12.490Z,15.90
2023-02-07T17:48:03.909Z,18.60
2023-02-07T17:50:56.876Z,13.50
2023-02-07T17:53:48.120Z,15.10
2023-02-07T17:56:39.329Z,14.40
2023-02-07T17:59:30.318Z,15.30
2023-02-07T18:02:21.383Z,12.90
2023-02-07T18:05:12.382Z,12.30
2023-02-07T18:08:03.544Z,14.30
2023-02-07T18:10:54.994Z,16.50
2023-02-07T18:13:46.810Z,15.50
2023-02-07T18:16:38.254Z,16.20
2023-02-07T18:19:31.866Z,19.10
2023-02-07T18:22:22.807Z,20.00
2023-02-07T18:25:14.167Z,22.40
2023-02-07T18:28:05.501Z,21.00
2023-02-07T18:30:56.528Z,18.70
2023-02-07T18:33:48.433Z,18.80
2023-02-07T18:36:41.104Z,20.60
2023-02-07T18:39:32.832Z,25.20
2023-02-07T18:42:24.832Z,23.00
2023-02-07T18:45:16.550Z,21.70
2023-02-07T18:48:08.333Z,22.80
2023-02-07T18:51:00.347Z,17.90
2023-02-07T18:53:51.400Z,19.50
2023-02-07T18:56:42.743Z,18.00
2023-02-07T18:59:34.063Z,16.50
2023-02-07T19:02:26.097Z,18.60
2023-02-07T19:05:17.122Z,17.80
2023-02-07T19:08:08.264Z,11.40
2023-02-07T19:11:01.458Z,14.60
2023-02-07T19:13:52.462Z,16.40
2023-02-07T19:16:43.493Z,18.00
2023-02-07T19:19:34.711Z,19.30
2023-02-07T19:22:35.290Z,16.50
2023-02-07T19:25:27.460Z,18.40
2023-02-07T19:28:18.861Z,19.40
2023-02-07T19:31:10.786Z,20.10
2023-02-07T19:34:02.303Z,19.50
2023-02-07T19:36:53.821Z,18.30
2023-02-07T19:39:46.224Z,20.90
2023-02-07T19:42:37.303Z,16.50
2023-02-07T19:45:28.492Z,17.00
2023-02-07T19:48:19.653Z,18.40
2023-02-07T19:51:13.648Z,16.40
2023-02-07T19:54:04.887Z,18.50
2023-02-07T19:56:55.858Z,17.40
2023-02-07T19:59:48.411Z,16.40
2023-02-07T20:02:39.542Z,15.00
2023-02-07T20:05:30.945Z,18.60
2023-02-07T20:08:22.037Z,17.60
2023-02-07T20:11:15.389Z,15.40
2023-02-07T20:14:07.791Z,16.30
2023-02-07T20:16:59.178Z,19.00
2023-02-07T20:19:50.211Z,16.00
2023-02-07T20:22:41.450Z,15.60
2023-02-07T20:25:34.693Z,16.10
2023-02-07T20:28:29.441Z,18.20
2023-02-07T20:31:22.369Z,16.30
2023-02-07T20:34:13.911Z,18.50
2023-02-07T20:37:05.015Z,16.20
2023-02-07T20:39:56.360Z,16.50
2023-02-07T20:42:47.664Z,15.20
2023-02-07T20:45:38.926Z,18.60
2023-02-07T20:48:30.124Z,17.20
2023-02-07T20:51:21.172Z,19.40
2023-02-07T20:54:12.698Z,18.90
2023-02-07T20:57:03.845Z,18.90
2023-02-07T20:59:55.116Z,21.10
2023-02-07T21:02:46.217Z,22.50
2023-02-07T21:05:40.018Z,18.60
2023-02-07T21:08:31.710Z,19.20
2023-02-07T21:11:23.666Z,20.30
2023-02-07T21:14:16.387Z,21.10
2023-02-07T21:17:08.527Z,24.00
2023-02-07T21:20:00.053Z,26.90
2023-02-07T21:22:51.640Z,26.50
2023-02-07T21:25:43.506Z,28.30
2023-02-07T21:28:35.293Z,27.70
2023-02-07T21:31:26.913Z,31.50
2023-02-07T21:34:21.216Z,35.40
2023-02-07T21:37:12.516Z,29.80
2023-02-07T21:40:04.580Z,33.30
2023-02-07T21:42:57.617Z,29.20
2023-02-07T21:45:49.223Z,18.80
2023-02-07T21:48:41.770Z,24.40
2023-02-07T21:51:34.629Z,20.30
2023-02-07T21:54:26.407Z,22.10
2023-02-07T21:57:18.453Z,24.10
2023-02-07T22:00:13.392Z,25.20
2023-02-07T22:03:04.997Z,26.20
2023-02-07T22:05:56.810Z,25.10
2023-02-07T22:08:50.413Z,22.40
2023-02-07T22:11:41.726Z,19.00
2023-02-07T22:14:34.018Z,21.40
2023-02-07T22:17:25.140Z,29.80
2023-02-07T22:20:17.150Z,32.00
2023-02-07T22:23:09.146Z,30.20
2023-02-07T22:26:00.816Z,24.30
2023-02-07T22:28:54.314Z,32.00
2023-02-07T22:31:45.473Z,32.20
2023-02-07T22:34:37.535Z,32.90
2023-02-07T22:37:29.300Z,34.10
2023-02-07T22:40:23.996Z,47.70
2023-02-07T22:43:16.319Z,38.80
2023-02-07T22:46:10.343Z,75.30
2023-02-07T22:49:01.502Z,77.50
2023-02-07T22:51:53.105Z,33.70
2023-02-07T22:54:44.814Z,28.80
2023-02-07T22:57:36.416Z,24.20
2023-02-07T23:00:28.264Z,37.90
2023-02-07T23:03:20.449Z,33.10
2023-02-07T23:06:12.418Z,29.40
2023-02-07T23:09:05.264Z,41.50
2023-02-07T23:11:56.816Z,46.10
2023-02-07T23:14:48.341Z,53.20
2023-02-07T23:17:39.947Z,39.00
2023-02-07T23:20:31.514Z,24.00
2023-02-07T23:23:23.118Z,30.30
2023-02-07T23:26:15.988Z,27.30
2023-02-07T23:29:08.610Z,25.20
2023-02-07T23:32:00.160Z,21.60
2023-02-07T23:34:51.686Z,34.90
2023-02-07T23:37:43.367Z,24.60
2023-02-07T23:40:34.886Z,26.60
2023-02-07T23:43:27.518Z,25.60
2023-02-07T23:46:19.337Z,28.30
2023-02-07T23:49:11.275Z,25.60
2023-02-07T23:52:02.860Z,32.00
2023-02-07T23:54:54.455Z,22.30
2023-02-07T23:57:46.052Z,20.70
